Time;durP1;ratioP1;P1;durP2;ratioP2;P2;SDS_P1;SDS_P2;PMS_P1;PMS_P2;Temp;Humidity;BMP_temperature;BMP_pressure;BME280_temperature;BME280_humidity;BME280_pressure;Samples;Min_cycle;Max_cycle;Signal;HPM_P1;HPM_P2
2023/05/04 00:02:17;;;;;;;2.80;2.50;;;;;;;-148.14;100.00;71486.72;1726794;75;41793;-78
2023/05/04 00:04:49;;;;;;;3.60;2.80;;;;;;;-148.14;100.00;71486.72;1725581;75;41346;-77
2023/05/04 00:07:19;;;;;;;2.60;2.40;;;;;;;-148.14;100.00;71486.72;1726903;75;41559;-77
2023/05/04 00:09:48;;;;;;;2.80;2.30;;;;;;;-148.14;100.00;71486.72;1725880;83;41383;-75
2023/05/04 00:12:18;;;;;;;3.20;2.70;;;;;;;-148.14;100.00;71486.72;1726142;75;41136;-78
2023/05/04 00:14:47;;;;;;;3.10;2.70;;;;;;;-148.14;100.00;71486.72;1726348;75;41460;-74
2023/05/04 00:17:17;;;;;;;3.20;2.70;;;;;;;-148.14;100.00;71486.72;1726383;75;42108;-75
2023/05/04 00:19:49;;;;;;;3.40;3.10;;;;;;;-148.14;100.00;71486.72;1726387;75;41475;-76
2023/05/04 00:22:18;;;;;;;3.80;3.10;;;;;;;-148.14;100.00;71486.72;1726200;75;41275;-74
2023/05/04 00:24:48;;;;;;;3.10;2.80;;;;;;;-148.14;100.00;71486.72;1726616;75;41734;-75
2023/05/04 00:27:17;;;;;;;3.60;3.00;;;;;;;-148.14;100.00;71486.72;1726248;75;42065;-79
2023/05/04 00:29:47;;;;;;;3.30;2.60;;;;;;;-148.14;100.00;71486.72;1726685;75;41133;-78
2023/05/04 00:32:16;;;;;;;4.50;2.80;;;;;;;-148.14;100.00;71486.72;1726501;75;42153;-73
2023/05/04 00:34:48;;;;;;;4.60;3.60;;;;;;;-148.14;100.00;71486.72;1727093;75;41811;-78
2023/05/04 00:37:18;;;;;;;8.70;7.70;;;;;;;-148.14;100.00;71486.72;1725828;75;41458;-77
2023/05/04 00:39:47;;;;;;;9.50;8.40;;;;;;;-148.14;100.00;71486.72;1727296;75;41622;-76
2023/05/04 00:42:17;;;;;;;6.60;5.60;;;;;;;-148.14;100.00;71486.72;1725913;75;41767;-75
2023/05/04 00:44:46;;;;;;;5.20;4.70;;;;;;;-148.14;100.00;71486.72;1727591;75;41282;-73
2023/05/04 00:47:18;;;;;;;4.80;4.30;;;;;;;-148.14;100.00;71486.72;1725705;75;41566;-74
2023/05/04 00:49:50;;;;;;;4.30;3.70;;;;;;;-148.14;100.00;71486.72;1726942;75;41600;-75
2023/05/04 00:52:19;;;;;;;3.50;3.10;;;;;;;-148.14;100.00;71486.72;1725115;75;42669;-74
2023/05/04 00:54:49;;;;;;;3.90;3.40;;;;;;;-148.14;100.00;71486.72;1726662;75;41701;-74
2023/05/04 00:57:19;;;;;;;3.40;3.10;;;;;;;-148.14;100.00;71486.72;1725194;75;41250;-75
2023/05/04 00:59:49;;;;;;;2.80;2.50;;;;;;;-148.14;100.00;71486.72;1726772;75;41345;-78
2023/05/04 01:02:18;;;;;;;3.50;3.20;;;;;;;-148.14;100.00;71486.72;1725697;75;41476;-76
2023/05/04 01:04:51;;;;;;;3.20;2.90;;;;;;;-148.14;100.00;71486.72;1727130;75;41292;-76
2023/05/04 01:07:25;;;;;;;3.00;2.70;;;;;;;-148.14;100.00;71486.72;1725851;75;42549;-77
2023/05/04 01:10:00;;;;;;;3.70;3.30;;;;;;;-148.14;100.00;71486.72;1727000;75;41455;-77
2023/05/04 01:12:35;;;;;;;3.20;2.90;;;;;;;-148.14;100.00;71486.72;1725351;75;41883;-77
2023/05/04 01:15:06;;;;;;;3.20;2.90;;;;;;;-148.14;100.00;71486.72;1726842;75;42041;-76
2023/05/04 01:17:35;;;;;;;2.90;2.60;;;;;;;-148.14;100.00;71486.72;1725621;83;41235;-75
2023/05/04 01:20:09;;;;;;;2.90;2.60;;;;;;;-148.14;100.00;71486.72;1727119;75;41643;-77
2023/05/04 01:22:41;;;;;;;3.30;2.60;;;;;;;-148.14;100.00;71486.72;1725924;75;41704;-76
2023/05/04 01:25:12;;;;;;;3.20;2.60;;;;;;;-148.14;100.00;71486.72;1726590;83;41314;-74
2023/05/04 01:27:45;;;;;;;3.00;2.20;;;;;;;-148.14;100.00;71486.72;1725919;75;42190;-75
2023/05/04 01:30:19;;;;;;;3.10;2.40;;;;;;;-148.14;100.00;71486.72;1726366;75;41192;-77
2023/05/04 01:32:48;;;;;;;2.80;2.40;;;;;;;-148.14;100.00;71486.72;1726180;75;41087;-74
2023/05/04 01:35:18;;;;;;;3.60;3.20;;;;;;;-148.14;100.00;71486.72;1726914;75;41730;-77
2023/05/04 01:37:53;;;;;;;3.50;3.20;;;;;;;-148.14;100.00;71486.72;1726151;75;41338;-76
2023/05/04 01:40:23;;;;;;;3.30;3.00;;;;;;;-148.14;100.00;71486.72;1726858;75;42200;-74
2023/05/04 01:42:52;;;;;;;3.30;2.90;;;;;;;-148.14;100.00;71486.72;1726113;75;41269;-75
2023/05/04 01:45:23;;;;;;;3.30;2.90;;;;;;;-148.14;100.00;71486.72;1726823;75;41729;-74
2023/05/04 01:47:53;;;;;;;2.80;2.60;;;;;;;-148.14;100.00;71486.72;1725633;75;41526;-77
2023/05/04 01:50:22;;;;;;;2.60;2.40;;;;;;;-148.14;100.00;71486.72;1726808;75;41741;-76
2023/05/04 01:52:54;;;;;;;3.00;2.40;;;;;;;-148.14;100.00;71486.72;1726143;75;42091;-75
2023/05/04 01:55:24;;;;;;;2.70;2.40;;;;;;;-148.14;100.00;71486.72;1727100;75;41185;-75
2023/05/04 01:57:53;;;;;;;2.50;2.30;;;;;;;-148.14;100.00;71486.72;1726217;75;41462;-73
2023/05/04 02:00:23;;;;;;;2.80;2.50;;;;;;;-148.14;100.00;71486.72;1726269;75;41323;-75
2023/05/04 02:02:52;;;;;;;2.90;2.60;;;;;;;-148.14;100.00;71486.72;1726512;75;41787;-75
2023/05/04 02:05:22;;;;;;;3.30;2.90;;;;;;;-148.14;100.00;71486.72;1726455;75;41597;-77
2023/05/04 02:07:54;;;;;;;3.20;2.80;;;;;;;-148.14;100.00;71486.72;1726492;83;41169;-74
2023/05/04 02:10:23;;;;;;;2.80;2.50;;;;;;;-148.14;100.00;71486.72;1726508;75;41694;-75
2023/05/04 02:12:53;;;;;;;2.60;2.40;;;;;;;-148.14;100.00;71486.72;1727062;75;41221;-74
2023/05/04 02:15:23;;;;;;;3.20;2.70;;;;;;;-148.14;100.00;71486.72;1726328;75;41296;-79
2023/05/04 02:17:52;;;;;;;2.50;2.20;;;;;;;-148.14;100.00;71486.72;1727268;75;41624;-74
2023/05/04 02:20:22;;;;;;;2.90;2.60;;;;;;;-148.14;100.00;71486.72;1725584;75;41707;-76
2023/05/04 02:22:58;;;;;;;2.50;2.30;;;;;;;-148.14;100.00;71486.72;1727564;75;41441;-76
2023/05/04 02:25:27;;;;;;;2.90;2.50;;;;;;;-148.14;100.00;71486.72;1725592;75;41443;-75
2023/05/04 02:27:57;;;;;;;3.70;3.10;;;;;;;-148.14;100.00;71486.72;1727227;75;41753;-75
2023/05/04 02:30:26;;;;;;;3.60;2.90;;;;;;;-148.14;100.00;71486.72;1725958;75;41991;-76
2023/05/04 02:32:56;;;;;;;3.30;2.70;;;;;;;-148.14;100.00;71486.72;1726572;83;41149;-75
2023/05/04 02:35:25;;;;;;;3.60;3.30;;;;;;;-148.14;100.00;71486.72;1724963;75;41666;-76
2023/05/04 02:37:57;;;;;;;6.40;5.80;;;;;;;-148.14;100.00;71486.72;1727181;83;41265;-75
2023/05/04 02:40:27;;;;;;;8.40;5.10;;;;;;;-148.14;100.00;71486.72;1725505;75;41316;-76
2023/05/04 02:42:57;;;;;;;4.80;4.40;;;;;;;-148.14;100.00;71486.72;1726861;75;41623;-77
2023/05/04 02:45:26;;;;;;;6.90;5.50;;;;;;;-148.14;100.00;71486.72;1725251;75;41147;-73
2023/05/04 02:47:56;;;;;;;5.00;4.60;;;;;;;-148.14;100.00;71486.72;1726884;75;41972;-75
2023/05/04 02:50:30;;;;;;;3.90;3.50;;;;;;;-148.14;100.00;71486.72;1725719;75;41286;-76
2023/05/04 02:53:02;;;;;;;3.80;3.40;;;;;;;-148.14;100.00;71486.72;1726485;75;41786;-77
2023/05/04 02:55:32;;;;;;;4.00;2.80;;;;;;;-148.14;100.00;71486.72;1725720;75;42155;-76
2023/05/04 02:58:01;;;;;;;3.30;2.90;;;;;;;-148.14;100.00;71486.72;1727177;75;41417;-76
2023/05/04 03:00:31;;;;;;;3.60;3.00;;;;;;;-148.14;100.00;71486.72;1725795;75;41410;-78
2023/05/04 03:03:00;;;;;;;3.10;2.80;;;;;;;-148.14;100.00;71486.72;1727264;75;41604;-79
2023/05/04 03:05:30;;;;;;;2.60;2.40;;;;;;;-148.14;100.00;71486.72;1725152;75;41750;-75
2023/05/04 03:08:02;;;;;;;2.70;2.50;;;;;;;-148.14;100.00;71486.72;1727037;83;41198;-76
2023/05/04 03:10:31;;;;;;;2.70;2.50;;;;;;;-148.14;100.00;71486.72;1726367;75;41841;-76
2023/05/04 03:13:04;;;;;;;3.80;2.80;;;;;;;-148.14;100.00;71486.72;1726950;75;41320;-74
2023/05/04 03:15:34;;;;;;;2.80;2.60;;;;;;;-148.14;100.00;71486.72;1725950;75;41968;-77
2023/05/04 03:18:03;;;;;;;3.00;2.70;;;;;;;-148.14;100.00;71486.72;1727451;75;41865;-75
2023/05/04 03:20:33;;;;;;;2.90;2.30;;;;;;;-148.14;100.00;71486.72;1725688;75;41825;-76
2023/05/04 03:23:05;;;;;;;4.20;2.60;;;;;;;-148.14;100.00;71486.72;1726763;75;41570;-77
2023/05/04 03:25:35;;;;;;;3.20;2.90;;;;;;;-148.14;100.00;71486.72;1725705;75;42579;-75
2023/05/04 03:28:04;;;;;;;2.90;2.60;;;;;;;-148.14;100.00;71486.72;1727845;75;41175;-77
2023/05/04 03:30:34;;;;;;;3.90;2.60;;;;;;;-148.14;100.00;71486.72;1726376;75;41257;-76
2023/05/04 03:33:06;;;;;;;3.70;3.00;;;;;;;-148.14;100.00;71486.72;1727654;83;41160;-75
2023/05/04 03:35:36;;;;;;;3.10;2.80;;;;;;;-148.14;100.00;71486.72;1727018;75;41431;-76
2023/05/04 03:38:09;;;;;;;3.00;2.70;;;;;;;-148.14;100.00;71486.72;1726557;75;41411;-75
2023/05/04 03:40:38;;;;;;;2.40;2.20;;;;;;;-148.14;100.00;71486.72;1725440;75;41556;-75
2023/05/04 03:43:08;;;;;;;2.80;2.50;;;;;;;-148.14;100.00;71486.72;1723914;75;41160;-75
2023/05/04 03:45:38;;;;;;;2.60;2.40;;;;;;;-148.14;100.00;71486.72;1724592;83;41409;-75
2023/05/04 03:48:08;;;;;;;2.40;2.20;;;;;;;-148.14;100.00;71486.72;1723619;75;41585;-75
2023/05/04 03:50:37;;;;;;;3.10;2.80;;;;;;;-148.14;100.00;71486.72;1725189;75;41686;-74
2023/05/04 03:53:09;;;;;;;2.90;2.70;;;;;;;-148.14;100.00;71486.72;1723812;75;41790;-74
2023/05/04 03:55:39;;;;;;;3.20;2.60;;;;;;;-148.14;100.00;71486.72;1725618;75;42143;-76
2023/05/04 03:58:08;;;;;;;2.80;2.40;;;;;;;-148.14;100.00;71486.72;1723149;75;41741;-76
2023/05/04 04:00:38;;;;;;;2.90;2.60;;;;;;;-148.14;100.00;71486.72;1725108;75;41990;-72
2023/05/04 04:03:07;;;;;;;4.60;3.00;;;;;;;-148.14;100.00;71486.72;1723302;75;41667;-74
2023/05/04 04:05:36;;;;;;;3.60;3.30;;;;;;;-148.14;100.00;71486.72;1724990;75;41284;-74
2023/05/04 04:08:09;;;;;;;3.80;3.10;;;;;;;-148.14;100.00;71486.72;1723492;75;41811;-74
2023/05/04 04:10:38;;;;;;;4.20;3.70;;;;;;;-148.14;100.00;71486.72;1725196;75;41552;-74
2023/05/04 04:13:08;;;;;;;5.00;4.50;;;;;;;-148.14;100.00;71486.72;1723374;83;41950;-73
2023/05/04 04:15:37;;;;;;;4.30;3.80;;;;;;;-148.14;100.00;71486.72;1725378;75;41674;-74
2023/05/04 04:18:07;;;;;;;4.40;3.90;;;;;;;-148.14;100.00;71486.72;1723377;75;41409;-75
2023/05/04 04:20:36;;;;;;;5.00;4.30;;;;;;;-148.14;100.00;71486.72;1725667;75;41478;-74
2023/05/04 04:23:09;;;;;;;4.80;4.30;;;;;;;-148.14;100.00;71486.72;1723555;75;41702;-75
2023/05/04 04:25:39;;;;;;;6.00;5.10;;;;;;;-148.14;100.00;71486.72;1725277;75;41255;-76
2023/05/04 04:28:09;;;;;;;8.30;7.40;;;;;;;-148.14;100.00;71486.72;1725950;75;41616;-74
2023/05/04 04:30:38;;;;;;;7.20;6.50;;;;;;;-148.14;100.00;71486.72;1726491;75;41299;-75
2023/05/04 04:33:08;;;;;;;6.50;5.50;;;;;;;-148.14;100.00;71486.72;1725815;75;41491;-75
2023/05/04 04:35:37;;;;;;;7.80;7.00;;;;;;;-148.14;100.00;71486.72;1726799;75;41522;-77
2023/05/04 04:38:09;;;;;;;8.60;7.80;;;;;;;-148.14;100.00;71486.72;1726181;75;41264;-76
2023/05/04 04:40:39;;;;;;;6.50;5.70;;;;;;;-148.14;100.00;71486.72;1726552;83;41966;-74
2023/05/04 04:43:09;;;;;;;5.10;4.60;;;;;;;-148.14;100.00;71486.72;1725791;75;41133;-76
2023/05/04 04:45:40;;;;;;;5.40;4.60;;;;;;;-148.14;100.00;71486.72;1726696;75;41200;-74
2023/05/04 04:48:10;;;;;;;4.10;3.70;;;;;;;-148.14;100.00;71486.72;1726115;75;41819;-76
2023/05/04 04:50:41;;;;;;;4.00;3.60;;;;;;;-148.14;100.00;71486.72;1725930;75;42878;-74
2023/05/04 04:53:13;;;;;;;3.70;2.80;;;;;;;-148.14;100.00;71486.72;1726406;75;42341;-75
2023/05/04 04:55:43;;;;;;;2.80;2.50;;;;;;;-148.14;100.00;71486.72;1726489;75;41302;-73
2023/05/04 04:58:12;;;;;;;3.10;2.70;;;;;;;-148.14;100.00;71486.72;1727305;75;41137;-74
2023/05/04 05:00:44;;;;;;;3.10;2.80;;;;;;;-148.14;100.00;71486.72;1726134;75;43737;-75
2023/05/04 05:03:13;;;;;;;3.60;3.10;;;;;;;-148.14;100.00;71486.72;1727437;75;41283;-74
2023/05/04 05:05:43;;;;;;;3.50;3.20;;;;;;;-148.14;100.00;71486.72;1725114;75;41602;-73
2023/05/04 05:08:15;;;;;;;3.50;3.20;;;;;;;-148.14;100.00;71486.72;1727392;75;41910;-75
2023/05/04 05:10:44;;;;;;;3.60;3.20;;;;;;;-148.14;100.00;71486.72;1725944;75;41914;-74
2023/05/04 05:13:14;;;;;;;3.70;3.20;;;;;;;-148.14;100.00;71486.72;1726818;75;41728;-74
2023/05/04 05:15:43;;;;;;;5.00;4.50;;;;;;;-148.14;100.00;71486.72;1725133;75;41691;-75
2023/05/04 05:18:13;;;;;;;4.90;4.40;;;;;;;-148.14;100.00;71486.72;1727209;75;41132;-75
2023/05/04 05:20:45;;;;;;;7.90;6.00;;;;;;;-148.14;100.00;71486.72;1725559;75;42438;-75
2023/05/04 05:23:17;;;;;;;7.70;6.90;;;;;;;-148.14;100.00;71486.72;1726575;83;41648;-74
2023/05/04 05:25:46;;;;;;;7.60;6.70;;;;;;;-148.14;100.00;71486.72;1725703;75;41592;-74
2023/05/04 05:28:16;;;;;;;7.10;6.40;;;;;;;-148.14;100.00;71486.72;1726516;75;42283;-74
2023/05/04 05:30:46;;;;;;;6.50;5.80;;;;;;;-148.14;100.00;71486.72;1725419;75;41282;-75
2023/05/04 05:33:16;;;;;;;6.20;5.60;;;;;;;-148.14;100.00;71486.72;1726301;75;41581;-75
2023/05/04 05:35:46;;;;;;;6.70;6.10;;;;;;;-148.14;100.00;71486.72;1724187;75;41263;-77
2023/05/04 05:38:18;;;;;;;7.40;6.00;;;;;;;-148.14;100.00;71486.72;1726371;75;41398;-75
2023/05/04 05:40:48;;;;;;;4.40;4.00;;;;;;;-148.14;100.00;71486.72;1724334;75;41736;-77
2023/05/04 05:43:20;;;;;;;3.60;3.30;;;;;;;-148.14;100.00;71486.72;1725768;75;41144;-76
2023/05/04 05:45:50;;;;;;;7.70;6.30;;;;;;;-148.14;100.00;71486.72;1723752;75;42118;-76
2023/05/04 05:48:19;;;;;;;8.20;6.60;;;;;;;-148.14;100.00;71486.72;1726748;75;41563;-74
2023/05/04 05:50:49;;;;;;;8.70;6.30;;;;;;;-148.14;100.00;71486.72;1723919;75;41240;-77
2023/05/04 05:53:21;;;;;;;6.70;6.00;;;;;;;-148.14;100.00;71486.72;1726314;75;41615;-75
2023/05/04 05:55:50;;;;;;;8.20;4.90;;;;;;;-148.14;100.00;71486.72;1724299;75;43067;-77
2023/05/04 05:58:20;;;;;;;5.90;5.20;;;;;;;-148.14;100.00;71486.72;1725672;75;41274;-74
2023/05/04 06:00:50;;;;;;;7.70;6.40;;;;;;;-148.14;100.00;71486.72;1724119;75;41723;-74
2023/05/04 06:03:19;;;;;;;8.20;7.00;;;;;;;-148.14;100.00;71486.72;1726385;75;41608;-73
2023/05/04 06:05:49;;;;;;;6.60;5.90;;;;;;;-148.14;100.00;71486.72;1725108;75;41523;-73
2023/05/04 06:08:21;;;;;;;6.10;5.50;;;;;;;-148.14;100.00;71486.72;1725515;75;41482;-74
2023/05/04 06:10:51;;;;;;;4.60;4.20;;;;;;;-148.14;100.00;71486.72;1724842;75;42500;-76
2023/05/04 06:13:20;;;;;;;5.60;5.10;;;;;;;-148.14;100.00;71486.72;1726160;75;41552;-76
2023/05/04 06:15:54;;;;;;;6.10;5.30;;;;;;;-148.14;100.00;71486.72;1724006;75;42077;-73
2023/05/04 06:18:23;;;;;;;5.50;4.90;;;;;;;-148.14;100.00;71486.72;1726429;75;41119;-75
2023/05/04 06:21:00;;;;;;;6.30;5.60;;;;;;;-148.14;100.00;71486.72;1725221;75;41693;-74
2023/05/04 06:23:33;;;;;;;8.50;5.80;;;;;;;-148.14;100.00;71486.72;1725427;75;42303;-74
2023/05/04 06:26:04;;;;;;;7.80;5.70;;;;;;;-148.14;100.00;71486.72;1725125;75;41775;-74
2023/05/04 06:28:34;;;;;;;6.10;5.50;;;;;;;-148.14;100.00;71486.72;1725696;83;41467;-78
2023/05/04 06:31:04;;;;;;;5.40;4.70;;;;;;;-148.14;100.00;71486.72;1726295;75;41313;-75
2023/05/04 06:33:46;;;;;;;8.80;6.70;;;;;;;-148.14;100.00;71486.72;1725309;75;41661;-76
2023/05/04 06:36:15;;;;;;;5.80;5.20;;;;;;;-148.14;100.00;71486.72;1725400;75;41928;-76
2023/05/04 06:38:47;;;;;;;6.20;4.70;;;;;;;-148.14;100.00;71486.72;1726504;75;41345;-75
2023/05/04 06:41:17;;;;;;;6.00;5.10;;;;;;;-148.14;100.00;71486.72;1726925;83;41895;-74
2023/05/04 06:43:46;;;;;;;5.40;4.70;;;;;;;-148.14;100.00;71486.72;1726209;75;41248;-73
2023/05/04 06:46:17;;;;;;;4.80;4.10;;;;;;;-148.14;100.00;71486.72;1727198;75;41210;-73
2023/05/04 06:48:47;;;;;;;5.50;4.30;;;;;;;-148.14;100.00;71486.72;1725737;75;43055;-75
2023/05/04 06:51:17;;;;;;;7.90;4.60;;;;;;;-148.14;100.00;71486.72;1727193;75;41322;-74
2023/05/04 06:53:49;;;;;;;8.60;6.20;;;;;;;-148.14;100.00;71486.72;1724456;75;41420;-76
2023/05/04 06:56:20;;;;;;;7.30;5.50;;;;;;;-148.14;100.00;71486.72;1726745;75;41177;-74
2023/05/04 06:58:50;;;;;;;6.90;6.20;;;;;;;-148.14;100.00;71486.72;1725151;75;41626;-75
2023/05/04 07:01:19;;;;;;;7.80;6.30;;;;;;;-148.14;100.00;71486.72;1726191;75;41124;-75
2023/05/04 07:03:49;;;;;;;7.30;6.10;;;;;;;-148.14;100.00;71486.72;1724585;75;41244;-76
2023/05/04 07:06:19;;;;;;;12.10;7.70;;;;;;;-148.14;100.00;71486.72;1726475;75;41770;-74
2023/05/04 07:08:52;;;;;;;11.50;7.30;;;;;;;-148.14;100.00;71486.72;1725522;75;41749;-75
2023/05/04 07:11:22;;;;;;;7.00;6.10;;;;;;;-148.14;100.00;71486.72;1727418;75;41696;-74
2023/05/04 07:13:51;;;;;;;7.10;6.40;;;;;;;-148.14;100.00;71486.72;1723576;75;41861;-74
2023/05/04 07:16:21;;;;;;;13.10;8.50;;;;;;;-148.14;100.00;71486.72;1726148;75;41335;-73
2023/05/04 07:18:50;;;;;;;12.30;7.90;;;;;;;-148.14;100.00;71486.72;1724175;75;41816;-75
2023/05/04 07:21:20;;;;;;;9.60;7.90;;;;;;;-148.14;100.00;71486.72;1726540;75;41145;-76
2023/05/04 07:23:53;;;;;;;7.60;6.80;;;;;;;-148.14;100.00;71486.72;1724353;75;41442;-75
2023/05/04 07:26:23;;;;;;;9.20;7.00;;;;;;;-148.14;100.00;71486.72;1726317;75;41140;-74
2023/05/04 07:28:53;;;;;;;9.10;7.10;;;;;;;-148.14;100.00;71486.72;1724328;75;41719;-72
2023/05/04 07:31:22;;;;;;;8.50;6.50;;;;;;;-148.14;100.00;71486.72;1726160;75;41318;-75
2023/05/04 07:33:52;;;;;;;6.80;5.70;;;;;;;-148.14;100.00;71486.72;1723280;75;41729;-77
2023/05/04 07:36:23;;;;;;;7.10;6.20;;;;;;;-148.14;100.00;71486.72;1726054;75;41631;-74
2023/05/04 07:38:55;;;;;;;9.90;6.40;;;;;;;-148.14;100.00;71486.72;1724633;83;41530;-78
2023/05/04 07:41:25;;;;;;;8.60;6.80;;;;;;;-148.14;100.00;71486.72;1726879;75;41763;-74
2023/05/04 07:43:54;;;;;;;8.70;6.40;;;;;;;-148.14;100.00;71486.72;1724408;75;42861;-74
2023/05/04 07:46:24;;;;;;;7.10;5.60;;;;;;;-148.14;100.00;71486.72;1725815;75;41137;-79
2023/05/04 07:48:54;;;;;;;6.70;5.00;;;;;;;-148.14;100.00;71486.72;1724107;75;41656;-76
2023/05/04 07:51:23;;;;;;;7.40;5.20;;;;;;;-148.14;100.00;71486.72;1726564;75;41302;-75
2023/05/04 07:53:55;;;;;;;7.20;5.40;;;;;;;-148.14;100.00;71486.72;1723196;75;42207;-74
2023/05/04 07:56:25;;;;;;;9.30;5.90;;;;;;;-148.14;100.00;71486.72;1725668;75;41286;-73
2023/05/04 07:58:54;;;;;;;6.60;5.50;;;;;;;-148.14;100.00;71486.72;1724264;83;41719;-76
2023/05/04 08:01:24;;;;;;;6.50;4.00;;;;;;;-148.14;100.00;71486.72;1725421;75;41262;-74
2023/05/04 08:03:54;;;;;;;5.40;4.10;;;;;;;-148.14;100.00;71486.72;1724491;75;41214;-77
2023/05/04 08:06:26;;;;;;;3.70;3.00;;;;;;;-148.14;100.00;71486.72;1725194;75;42202;-74
2023/05/04 08:08:59;;;;;;;4.40;3.10;;;;;;;-148.14;100.00;71486.72;1725673;75;41739;-74
2023/05/04 08:11:29;;;;;;;4.10;2.60;;;;;;;-148.14;100.00;71486.72;1724996;83;41817;-73
2023/05/04 08:13:59;;;;;;;6.50;4.10;;;;;;;-148.14;100.00;71486.72;1725372;75;41465;-74
2023/05/04 08:16:29;;;;;;;7.70;4.60;;;;;;;-148.14;100.00;71486.72;1724061;75;41534;-78
2023/05/04 08:18:59;;;;;;;6.20;4.70;;;;;;;-148.14;100.00;71486.72;1725722;83;41539;-77
2023/05/04 08:21:29;;;;;;;6.50;4.30;;;;;;;-148.14;100.00;71486.72;1724785;75;41607;-75
2023/05/04 08:24:01;;;;;;;4.10;3.30;;;;;;;-148.14;100.00;71486.72;1724939;75;41624;-75
2023/05/04 08:26:31;;;;;;;7.10;4.00;;;;;;;-148.14;100.00;71486.72;1724759;75;41690;-77
2023/05/04 08:29:09;;;;;;;6.90;3.90;;;;;;;-148.14;100.00;71486.72;1726439;75;43037;-77
2023/05/04 08:31:39;;;;;;;6.30;4.80;;;;;;;-148.14;100.00;71486.72;1724404;75;41445;-73
2023/05/04 08:34:09;;;;;;;4.80;4.10;;;;;;;-148.14;100.00;71486.72;1725873;75;41867;-76
2023/05/04 08:36:38;;;;;;;3.40;3.00;;;;;;;-148.14;100.00;71486.72;1723761;75;41298;-76
2023/05/04 08:39:13;;;;;;;4.80;3.60;;;;;;;-148.14;100.00;71486.72;1726690;83;41275;-75
2023/05/04 08:41:43;;;;;;;4.00;3.40;;;;;;;-148.14;100.00;71486.72;1723777;75;41608;-75
2023/05/04 08:44:13;;;;;;;5.30;3.30;;;;;;;-148.14;100.00;71486.72;1725601;83;41314;-74
2023/05/04 08:46:43;;;;;;;4.50;3.10;;;;;;;-148.14;100.00;71486.72;1723723;75;42252;-77
2023/05/04 08:49:12;;;;;;;4.40;3.40;;;;;;;-148.14;100.00;71486.72;1726644;75;42015;-74
2023/05/04 08:51:42;;;;;;;4.90;3.30;;;;;;;-148.14;100.00;71486.72;1724493;75;41750;-75
2023/05/04 08:54:15;;;;;;;3.90;2.90;;;;;;;-148.14;100.00;71486.72;1725361;75;41686;-76
2023/05/04 08:56:45;;;;;;;3.50;2.90;;;;;;;-148.14;100.00;71486.72;1724048;75;42101;-76
2023/05/04 08:59:20;;;;;;;3.40;2.90;;;;;;;-148.14;100.00;71486.72;1726030;83;42388;-77
2023/05/04 09:01:54;;;;;;;4.90;3.40;;;;;;;-148.14;100.00;71486.72;1723977;75;41314;-76
2023/05/04 09:04:23;;;;;;;3.90;3.00;;;;;;;-148.14;100.00;71486.72;1725826;75;42295;-76
2023/05/04 09:06:53;;;;;;;3.40;2.80;;;;;;;-148.14;100.00;71486.72;1723575;75;41595;-76
2023/05/04 09:09:27;;;;;;;4.70;3.30;;;;;;;-148.14;100.00;71486.72;1724671;75;41556;-74
2023/05/04 09:11:57;;;;;;;5.30;3.00;;;;;;;-148.14;100.00;71486.72;1723024;75;41234;-75
2023/05/04 09:14:35;;;;;;;3.70;3.00;;;;;;;-148.14;100.00;71486.72;1724353;75;41722;-76
2023/05/04 09:17:05;;;;;;;4.90;2.80;;;;;;;-148.14;100.00;71486.72;1722902;75;41655;-78
2023/05/04 09:19:42;;;;;;;4.90;3.40;;;;;;;-148.14;100.00;71486.72;1725887;83;41360;-74
2023/05/04 09:22:18;;;;;;;;;;;;;;;-148.14;100.00;71486.72;1724254;75;41676;-78
2023/05/04 09:24:51;;;;;;;5.10;3.70;;;;;;;-148.14;100.00;71486.72;1724956;83;41417;-75
2023/05/04 09:27:22;;;;;;;3.60;2.70;;;;;;;-148.14;100.00;71486.72;1723768;75;41408;-77
2023/05/04 09:29:58;;;;;;;2.20;1.90;;;;;;;-148.14;100.00;71486.72;1726266;75;41773;-75
2023/05/04 09:32:28;;;;;;;4.10;2.30;;;;;;;-148.14;100.00;71486.72;1724712;75;41305;-76
2023/05/04 09:34:59;;;;;;;2.90;2.30;;;;;;;-148.14;100.00;71486.72;1725021;75;41801;-74
2023/05/04 09:37:29;;;;;;;3.90;2.40;;;;;;;-148.14;100.00;71486.72;1724624;83;41511;-74
2023/05/04 09:40:01;;;;;;;4.40;2.80;;;;;;;-148.14;100.00;71486.72;1725262;75;41734;-74
2023/05/04 09:42:31;;;;;;;4.40;2.10;;;;;;;-148.14;100.00;71486.72;1723991;75;41841;-75
2023/05/04 09:45:02;;;;;;;4.40;2.60;;;;;;;-148.14;100.00;71486.72;1725401;75;41546;-77
2023/05/04 09:47:36;;;;;;;2.10;1.40;;;;;;;-148.14;100.00;71486.72;1723758;83;41507;-76
2023/05/04 09:50:16;;;;;;;2.80;2.00;;;;;;;-148.14;100.00;71486.72;1725423;75;41299;-76
2023/05/04 09:52:46;;;;;;;4.30;2.90;;;;;;;-148.14;100.00;71486.72;1723665;75;41536;-75
2023/05/04 09:55:19;;;;;;;3.50;2.50;;;;;;;-148.14;100.00;71486.72;1724864;75;41801;-76
2023/05/04 09:57:51;;;;;;;4.60;2.80;;;;;;;-148.14;100.00;71486.72;1724370;75;41134;-74
2023/05/04 10:00:21;;;;;;;2.70;1.80;;;;;;;-148.14;100.00;71486.72;1725591;75;41828;-77
2023/05/04 10:02:52;;;;;;;1.80;1.70;;;;;;;-148.14;100.00;71486.72;1724434;75;41446;-78
2023/05/04 10:05:21;;;;;;;4.80;2.20;;;;;;;-148.14;100.00;71486.72;1725090;75;41532;-76
2023/05/04 10:07:51;;;;;;;5.80;2.80;;;;;;;-148.14;100.00;71486.72;1723791;83;41321;-76
2023/05/04 10:10:23;;;;;;;3.40;2.60;;;;;;;-148.14;100.00;71486.72;1725513;75;41998;-74
2023/05/04 10:12:52;;;;;;;6.40;3.10;;;;;;;-148.14;100.00;71486.72;1725538;75;41584;-75
2023/05/04 10:15:23;;;;;;;4.30;2.40;;;;;;;-148.14;100.00;71486.72;1724800;75;41416;-79
2023/05/04 10:18:05;;;;;;;2.60;1.80;;;;;;;-148.14;100.00;71486.72;1725707;75;41536;-76
2023/05/04 10:20:52;;;;;;;2.70;2.30;;;;;;;-148.14;100.00;71486.72;1725859;75;42482;-76
2023/05/04 10:23:46;;;;;;;4.60;2.90;;;;;;;-148.14;100.00;71486.72;1724749;75;41992;-77
2023/05/04 10:26:39;;;;;;;4.40;2.60;;;;;;;-148.14;100.00;71486.72;1725053;75;41457;-77
2023/05/04 10:29:23;;;;;;;2.90;2.10;;;;;;;-148.14;100.00;71486.72;1724467;83;41413;-75
2023/05/04 10:31:53;;;;;;;2.60;2.00;;;;;;;-148.14;100.00;71486.72;1725837;75;41493;-77
2023/05/04 10:34:27;;;;;;;4.30;2.60;;;;;;;-148.14;100.00;71486.72;1724721;75;41304;-75
2023/05/04 10:36:57;;;;;;;4.50;2.80;;;;;;;-148.14;100.00;71486.72;1725530;75;41511;-76
2023/05/04 10:39:28;;;;;;;3.40;2.30;;;;;;;-148.14;100.00;71486.72;1724438;75;41648;-72
2023/05/04 10:42:04;;;;;;;3.70;2.50;;;;;;;-148.14;100.00;71486.72;1726028;75;41363;-76
2023/05/04 10:44:36;;;;;;;3.80;2.30;;;;;;;-148.14;100.00;71486.72;1722617;75;41707;-76
2023/05/04 10:47:07;;;;;;;2.80;2.10;;;;;;;-148.14;100.00;71486.72;1725218;75;41329;-74
2023/05/04 10:49:37;;;;;;;3.50;2.10;;;;;;;-148.14;100.00;71486.72;1723496;75;41860;-76
2023/05/04 10:52:11;;;;;;;3.00;1.90;;;;;;;-148.14;100.00;71486.72;1725539;75;41340;-78
2023/05/04 10:54:41;;;;;;;3.20;2.10;;;;;;;-148.14;100.00;71486.72;1723378;75;41223;-74
2023/05/04 10:57:17;;;;;;;2.80;1.80;;;;;;;-148.14;100.00;71486.72;1725420;75;41582;-77
2023/05/04 10:59:57;;;;;;;3.30;1.90;;;;;;;-148.14;100.00;71486.72;1723997;75;41314;-78
2023/05/04 11:02:27;;;;;;;1.80;1.40;;;;;;;-148.14;100.00;71486.72;1726220;75;42235;-76
2023/05/04 11:05:04;;;;;;;3.10;2.10;;;;;;;-148.14;100.00;71486.72;1724454;75;41257;-75
2023/05/04 11:07:42;;;;;;;2.00;1.60;;;;;;;-148.14;100.00;71486.72;1724871;75;41463;-78
2023/05/04 11:10:23;;;;;;;5.00;2.20;;;;;;;-148.14;100.00;71486.72;1723715;75;41331;-76
2023/05/04 11:13:01;;;;;;;2.90;1.90;;;;;;;-148.14;100.00;71486.72;1725177;75;41120;-77
2023/05/04 11:15:31;;;;;;;2.90;1.60;;;;;;;-148.14;100.00;71486.72;1723999;83;41431;-77
2023/05/04 11:18:01;;;;;;;2.20;1.50;;;;;;;-148.14;100.00;71486.72;1724962;75;41529;-77
2023/05/04 11:20:30;;;;;;;3.50;1.40;;;;;;;-148.14;100.00;71486.72;1723899;75;41625;-75
2023/05/04 11:23:01;;;;;;;1.70;1.10;;;;;;;-148.14;100.00;71486.72;1724782;75;41669;-75
2023/05/04 11:25:32;;;;;;;2.20;1.10;;;;;;;-148.14;100.00;71486.72;1724000;75;41190;-75
2023/05/04 11:28:05;;;;;;;2.00;1.40;;;;;;;-148.14;100.00;71486.72;1724602;83;41840;-76